Lantana, FL (33462)

12:45 AM EDT on August 28, 2014 (GMT -0400)
Island Estates | Change Station
CLOSE
Current Station
Personal Weather Station
Location: Lantana, FL
Elevation: 45 ft
Nearby Weather Stations

Elev 45 ft 26.57 °N, 80.08 °W | Updated 43 seconds ago

Partly Cloudy
Partly Cloudy
83.7 °F
Feels Like 91 °F
N
1.0
Wind Variable Wind from East
Gusts 1.0 mph

Today
High -- | Low -- °F
--% Chance of Precip.
Yesterday
High -- | Low -- °F
Precip. -- in
6:58 AM 7:44 PM
Waxing Crescent, 6% visible
Pressure 29.99 in
Visibility 10.0 miles
Clouds Few 3000 ft
Heat Index 91 °F
Dew Point 75 °F
Humidity 75%
Rainfall 0.00 in
Snow Depth Not available.
UV 0 out of 12
Pollen 5.40 out of 12
Air Quality Not available.
Flu Activity Not available.
METAR KPBI 280353Z 09007KT 10SM FEW030 29/22 A2999 RMK AO2 SLP153 T02890222

More Conditions Fewer Conditions

Pressure 29.99 in
Visibility 10.0 miles
Clouds Few 3000 ft
Heat Index 91 °F
Dew Point 75 °F
Humidity 75%
Rainfall 0.00 in
Snow Depth Not available.
UV 0 out of 12
Pollen 5.40 out of 12
Air Quality Not available.
Flu Activity Not available.
METAR KPBI 280353Z 09007KT 10SM FEW030 29/22 A2999 RMK AO2 SLP153 T02890222

More Conditions Fewer Conditions

10-Day Weather Forecast

Almanac

Astronomy

Aug. 28, 2014 Rise Set
Actual Time 6:58 AM EDT 7:44 PM EDT
Civil Twilight 6:34 AM EDT 8:07 PM EDT
Nautical Twilight 6:06 AM EDT 8:35 PM EDT
Astronomical Twilight 5:38 AM EDT 9:04 PM EDT
Moon 9:29 AM EDT 9:29 PM EDT
Length of Visible Light 13h 33m
Length of Day
12h 46m
Tomorrow will be 1m 29s shorter.
Waxing Crescent, 6% of the Moon is Illuminated
Today
Waxing Crescent
Sep 2
First Quarter
Sep 8
Full
Sep 15
Last Quarter
Sep 24
New

Today's Extremes

State Highs State Lows

Community

WunderPhotos

Upload Photos

1,747,907 photos uploaded!

Nearby

Air Quality

  Air Quality AQ Index Pollutant
Yesterday Good
OZONE
Wednesday Good
OZONE
Wednesday Good
PM2.5
Thursday Good
OZONE
Thursday Good
PM2.5
Friday Good
OZONE
Friday Good
PM2.5

Snow Depth

Station Depth Elevation
No new snow has been reported.

Earthquake Activity

City Distance Mag. Time & Date
No recent earthquake activity has been reported nearby.
Minimum magnitude displayed is 2.5.

Coastal Water Temperatures

Place Temperature
Lake Worth, FL 87.1 °F

Nearby Weather Stations